Pagina principală
METAR-TAF:

METAR-TAF

Aeroporturi :

Dubrovnik, Croația

Latitudine: 42-34N, longitudine: 018-16E, elevație: 157 m

Observații meteo curente

Raportul a fost făcut în urmă cu 16 de minute, la 13:00 UTC
Vânt 6 kt din direcții variabile
Temperatură 25°C
Umiditate 65%
Presiune 1012 hPa
Vizibilitate de 10 km sau mai mult
Nori puțini la o înălțime de 2800 picior

METAR: LDDU 161300Z VRB06KT 9999 FEW028 25/18 Q1012 NOSIG

Ora: 15:16 (13:16 UTC)

Prognoză

Raportul a fost făcut în urmă cu 1 oră și 51 de minute, la 11:25 UTC
Prognoză valabilă de la 16 ora 12 UTC la 17 ora 12 UTC
Vânt 9 kt de la Sud/Sud-est
Vizibilitate de 10 km sau mai mult
Nori puțini la o înălțime de 4000 picior
Devenind
de la 16 ora 14 UTC la 16 ora 16 UTC
Vânt 2 kt din direcții variabile
Devenind
de la 17 ora 09 UTC la 17 ora 11 UTC
Vânt 8 kt de la Vest/Nord-vest

TAF: LDDU 161125Z 1612/1712 16009KT 9999 FEW040 TX26/1612Z TN17/1703Z BECMG 1614/1616 VRB02KT BECMG 1709/1711 29008KT

Observații și prognoze meteo pentru peste 4.000 de aeroporturi (rapoarte METAR și TAF).

Stațiile disponibile sunt reprezentate pe hartă prin puncte galbene și roșii.

Țineți indicatorul mouse-ului pe punctul dorit pentru a vedea denumirea stației.

Apoi, faceți clic pentru a vedea observațiile și prognozele meteorologice.

Pentru a schimba harta: Pentru mărire, faceți clic pe butoanele verzi cu cruce neagră; pentru micșorare, pe butonul verde cu o liniuță; pentru hărți învecinate, pe săgețile verzi.


METAR-TAF: